createdAt,value
2019-01-24T00:01:51.908Z,100351.72
2019-01-24T00:07:06.900Z,100346.88
2019-01-24T00:12:09.571Z,100345.47
2019-01-24T00:17:31.740Z,100359.51
2019-01-24T00:22:53.920Z,100237.89
2019-01-24T00:28:16.134Z,100387.56
2019-01-24T00:33:38.408Z,100389.48
2019-01-24T00:39:00.608Z,99986.28
2019-01-24T00:44:22.772Z,100443.77
2019-01-24T00:49:44.945Z,100409.52
2019-01-24T00:55:08.903Z,100440.59
2019-01-24T01:00:31.090Z,100457.28
2019-01-24T01:05:53.264Z,100416.28
2019-01-24T01:11:08.327Z,100152.50
2019-01-24T01:16:11.021Z,100437.88
2019-01-24T01:21:13.686Z,100456.00
2019-01-24T01:26:35.882Z,100465.13
2019-01-24T01:31:58.057Z,100476.70
2019-01-24T01:37:20.231Z,100198.95
2019-01-24T01:42:42.422Z,100488.17
2019-01-24T01:47:45.195Z,100504.09
2019-01-24T01:53:07.371Z,100497.53
2019-01-24T01:58:29.537Z,100364.89
2019-01-24T02:03:51.704Z,100518.25
2019-01-24T02:09:07.911Z,100166.21
2019-01-24T02:14:30.092Z,100518.37
2019-01-24T02:19:52.265Z,100504.14
2019-01-24T02:25:14.438Z,100546.39
2019-01-24T02:30:36.635Z,100529.05
2019-01-24T02:35:39.314Z,100508.25
2019-01-24T02:40:41.987Z,100512.25
2019-01-24T02:46:04.179Z,100520.88
2019-01-24T02:51:26.364Z,100035.38
2019-01-24T02:56:48.543Z,100523.78
2019-01-24T03:02:10.723Z,100541.95
2019-01-24T03:07:33.662Z,100523.25
2019-01-24T03:12:55.835Z,100360.86
2019-01-24T03:18:18.013Z,100537.48
2019-01-24T03:23:40.193Z,100115.73
2019-01-24T03:29:02.401Z,100552.92
2019-01-24T03:34:05.117Z,100548.86
2019-01-24T03:39:27.301Z,100545.00
2019-01-24T03:44:29.980Z,100567.22
2019-01-24T03:49:52.149Z,100547.05
2019-01-24T03:55:15.681Z,100543.30
2019-01-24T04:00:21.299Z,100561.94
2019-01-24T04:05:43.492Z,100546.15
2019-01-24T04:10:59.287Z,100551.11
2019-01-24T04:16:21.465Z,100556.08
2019-01-24T04:21:43.637Z,100080.66
2019-01-24T04:27:05.807Z,100227.19
2019-01-24T04:32:27.984Z,100550.39
2019-01-24T04:37:50.158Z,100561.49
2019-01-24T04:43:12.335Z,100560.72
2019-01-24T04:48:15.005Z,100382.09
2019-01-24T04:53:37.206Z,100565.00
2019-01-24T04:58:59.443Z,100579.84
2019-01-24T05:04:21.627Z,100572.83
2019-01-24T05:09:36.709Z,100241.66
2019-01-24T05:14:58.905Z,100575.22
2019-01-24T05:20:21.089Z,100601.27
2019-01-24T05:25:43.263Z,100333.45
2019-01-24T05:30:45.926Z,100603.47
2019-01-24T05:36:08.108Z,100584.75
2019-01-24T05:41:30.282Z,100168.86
2019-01-24T05:46:52.444Z,100310.73
2019-01-24T05:51:55.109Z,100599.13
2019-01-24T05:57:17.283Z,100607.11
2019-01-24T06:02:39.472Z,100606.78
2019-01-24T06:07:55.212Z,100612.12
2019-01-24T06:13:17.385Z,100629.69
2019-01-24T06:18:39.563Z,100611.01
2019-01-24T06:24:01.747Z,100620.15
2019-01-24T06:29:04.527Z,100629.70
2019-01-24T06:34:26.697Z,100629.99
2019-01-24T06:39:48.872Z,100660.08
2019-01-24T06:45:31.851Z,100432.51
2019-01-24T06:50:54.035Z,100626.67
2019-01-24T06:56:16.220Z,100645.81
2019-01-24T07:01:38.418Z,100345.78
2019-01-24T07:06:53.642Z,100647.53
2019-01-24T07:12:15.833Z,100650.47
2019-01-24T07:17:38.024Z,100685.09
2019-01-24T07:23:00.207Z,100664.28
2019-01-24T07:28:22.381Z,100664.78
2019-01-24T07:33:44.555Z,100367.95
2019-01-24T07:39:07.085Z,100685.41
2019-01-24T07:44:09.770Z,100686.33
2019-01-24T07:49:31.940Z,100698.81
2019-01-24T07:54:54.127Z,100310.12
2019-01-24T08:00:19.724Z,100706.06
2019-01-24T08:05:42.575Z,100714.08
2019-01-24T08:10:58.278Z,100710.31
2019-01-24T08:16:20.475Z,100564.27
2019-01-24T08:21:42.633Z,100741.72
2019-01-24T08:27:04.831Z,100734.36
2019-01-24T08:32:27.260Z,100741.80
2019-01-24T08:37:29.926Z,100762.86
2019-01-24T08:42:52.206Z,100745.34
2019-01-24T08:48:14.385Z,100748.59
2019-01-24T08:53:36.589Z,100779.53
2019-01-24T08:58:58.772Z,100781.56
2019-01-24T09:04:20.950Z,100789.66
2019-01-24T09:09:35.949Z,100792.41
2019-01-24T09:14:58.117Z,100795.98
2019-01-24T09:20:00.798Z,100511.83
2019-01-24T09:25:04.187Z,100777.02
2019-01-24T09:30:11.028Z,100784.23
2019-01-24T09:35:14.201Z,100797.59
2019-01-24T09:40:38.428Z,100795.90
2019-01-24T09:46:00.619Z,100800.33
2019-01-24T09:51:22.811Z,100790.00
2019-01-24T09:56:25.476Z,100789.23
2019-01-24T10:01:28.147Z,100788.53
2019-01-24T10:06:36.232Z,100793.81
2019-01-24T10:11:35.396Z,100798.61
2019-01-24T10:16:57.563Z,100793.59
2019-01-24T10:22:00.246Z,100814.56
2019-01-24T10:27:22.425Z,100785.70
2019-01-24T10:32:44.813Z,100802.15
2019-01-24T10:38:06.995Z,100525.83
2019-01-24T10:43:09.665Z,100792.92
2019-01-24T10:48:12.348Z,100790.88
2019-01-24T10:53:34.528Z,100784.22
2019-01-24T10:58:56.701Z,100461.55
2019-01-24T11:04:18.908Z,100795.02
2019-01-24T11:09:34.701Z,100781.84
2019-01-24T11:14:56.876Z,100801.11
2019-01-24T11:25:49.232Z,100783.63
2019-01-24T11:31:11.413Z,100779.51
2019-01-24T11:36:33.608Z,100509.94
2019-01-24T11:41:55.790Z,100788.59
2019-01-24T11:47:17.966Z,100774.81
2019-01-24T11:52:40.139Z,100796.73
2019-01-24T11:58:02.307Z,100788.19
2019-01-24T12:03:24.504Z,100781.55
2019-01-24T12:08:40.205Z,100747.22
2019-01-24T12:14:02.394Z,100785.16
2019-01-24T12:19:24.618Z,100743.28
2019-01-24T12:24:46.803Z,100758.22
2019-01-24T12:30:12.825Z,100424.19
2019-01-24T12:35:35.171Z,100755.99
2019-01-24T12:40:57.347Z,100349.85
2019-01-24T12:46:00.022Z,100756.88
2019-01-24T12:51:02.781Z,100751.65
2019-01-24T12:56:05.482Z,100760.85
2019-01-24T13:01:08.157Z,100765.78
2019-01-24T13:06:10.883Z,100767.20
2019-01-24T13:11:26.173Z,100757.69
2019-01-24T13:16:28.928Z,100761.14
2019-01-24T13:21:51.111Z,100761.40
2019-01-24T13:27:13.298Z,100774.35
2019-01-24T13:32:35.473Z,100609.33
2019-01-24T13:37:38.150Z,100773.64
2019-01-24T13:43:01.033Z,100777.91
2019-01-24T13:48:23.220Z,100787.03
2019-01-24T13:53:45.420Z,100791.33
2019-01-24T13:59:07.616Z,100780.78
2019-01-24T14:04:33.651Z,100534.20
2019-01-24T14:09:49.400Z,100796.09
2019-01-24T14:15:33.556Z,100788.63
2019-01-24T14:20:55.722Z,100457.80
2019-01-24T14:26:17.938Z,100777.00
2019-01-24T14:31:20.677Z,100798.80
2019-01-24T14:36:43.062Z,100785.16
2019-01-24T14:41:45.736Z,100776.59
2019-01-24T14:47:07.939Z,100771.74
2019-01-24T14:52:30.244Z,100807.78
2019-01-24T14:57:52.656Z,100795.81
2019-01-24T15:02:55.553Z,100550.81
2019-01-24T15:08:10.993Z,100813.34
2019-01-24T15:13:13.671Z,100828.48
2019-01-24T15:18:16.342Z,100817.69
2019-01-24T15:23:19.017Z,100816.23
2019-01-24T15:28:21.915Z,100820.96
2019-01-24T15:33:24.615Z,100822.34
2019-01-24T15:38:47.269Z,100837.83
2019-01-24T15:44:09.495Z,100507.22
2019-01-24T15:49:31.753Z,100838.19
2019-01-24T15:54:54.114Z,100866.34
2019-01-24T16:00:37.027Z,100855.62
2019-01-24T16:05:59.218Z,100855.22
2019-01-24T16:11:01.948Z,100856.52
2019-01-24T16:16:24.112Z,100853.93
2019-01-24T16:21:46.294Z,100595.33
2019-01-24T16:27:08.509Z,100867.16
2019-01-24T16:32:30.803Z,100730.20
2019-01-24T16:37:54.164Z,100737.06
2019-01-24T16:43:16.386Z,100847.25
2019-01-24T16:48:38.567Z,100876.47
2019-01-24T16:54:00.741Z,100900.08
2019-01-24T16:59:22.926Z,100891.05
2019-01-24T17:04:45.099Z,100923.91
2019-01-24T17:09:59.886Z,100842.06
2019-01-24T17:15:22.064Z,100908.38
2019-01-24T17:20:25.513Z,100886.61
2019-01-24T17:25:47.689Z,100879.22
2019-01-24T17:31:09.864Z,100871.60
2019-01-24T17:36:32.048Z,100721.91
2019-01-24T17:41:54.228Z,100894.37
2019-01-24T17:47:17.846Z,100889.31
2019-01-24T17:52:40.086Z,100932.63
2019-01-24T18:03:52.208Z,100937.16
2019-01-24T18:09:07.987Z,100906.30
2019-01-24T18:14:30.199Z,100908.50
2019-01-24T18:19:52.371Z,100913.62
2019-01-24T18:25:14.565Z,100642.11
2019-01-24T18:30:36.980Z,100917.41
2019-01-24T18:35:39.650Z,100930.42
2019-01-24T18:41:08.411Z,100936.47
2019-01-24T18:46:26.111Z,100615.89
2019-01-24T18:51:48.308Z,100953.30
2019-01-24T18:57:10.521Z,100705.14
2019-01-24T19:02:13.217Z,100963.71
2019-01-24T19:07:28.441Z,100959.84
2019-01-24T19:12:31.143Z,100649.09
2019-01-24T19:17:54.294Z,100975.80
2019-01-24T19:29:06.713Z,100992.84
2019-01-24T19:34:28.922Z,100995.64
2019-01-24T19:39:31.622Z,100720.53
2019-01-24T19:44:53.812Z,100989.22
2019-01-24T19:50:18.240Z,100995.66
2019-01-24T19:55:40.797Z,101022.27
2019-01-24T20:01:25.431Z,100688.09
2019-01-24T20:06:42.130Z,100973.13
2019-01-24T20:12:04.468Z,101019.04
2019-01-24T20:17:26.645Z,100855.73
2019-01-24T20:22:49.414Z,100602.94
2019-01-24T20:28:11.594Z,101067.05
2019-01-24T20:33:33.788Z,100822.33
2019-01-24T20:38:55.951Z,100568.12
2019-01-24T20:43:58.641Z,101043.59
2019-01-24T20:49:20.852Z,101028.27
2019-01-24T20:54:43.074Z,101022.82
2019-01-24T21:00:28.384Z,101038.80
2019-01-24T21:05:31.056Z,101053.02
2019-01-24T21:10:46.536Z,101028.51
2019-01-24T21:16:08.731Z,100876.63
2019-01-24T21:21:30.958Z,101050.63
2019-01-24T21:26:53.152Z,101014.56
2019-01-24T21:32:15.358Z,100718.50
2019-01-24T21:37:37.563Z,101018.52
2019-01-24T21:42:59.747Z,100710.53
2019-01-24T21:48:21.932Z,101028.59
2019-01-24T21:53:44.102Z,101035.55
2019-01-24T21:59:06.301Z,100874.98
2019-01-24T22:04:28.546Z,101038.16
2019-01-24T22:09:31.314Z,101065.62
2019-01-24T22:14:53.532Z,101049.66
2019-01-24T22:20:15.968Z,101042.70
2019-01-24T22:25:38.144Z,101042.23
2019-01-24T22:31:00.564Z,101047.06
2019-01-24T22:36:03.246Z,101040.13
2019-01-24T22:41:25.429Z,101037.91
2019-01-24T22:46:47.618Z,101041.31
2019-01-24T22:52:09.801Z,101046.05
2019-01-24T22:57:31.987Z,100721.23
2019-01-24T23:02:54.159Z,101047.81
2019-01-24T23:08:10.789Z,101061.95
2019-01-24T23:13:32.995Z,101056.93
2019-01-24T23:18:55.230Z,101087.98
2019-01-24T23:23:57.921Z,101079.37
2019-01-24T23:29:00.645Z,101064.27
2019-01-24T23:34:22.861Z,101062.90
2019-01-24T23:39:51.360Z,101089.45
2019-01-24T23:45:09.137Z,100788.19
2019-01-24T23:50:31.318Z,100816.94
2019-01-24T23:55:53.535Z,101088.61
